Time;durP1;ratioP1;P1;durP2;ratioP2;P2;SDS_P1;SDS_P2;PMS_P1;PMS_P2;Temp;Humidity;BMP_temperature;BMP_pressure;BME280_temperature;BME280_humidity;BME280_pressure;Samples;Min_cycle;Max_cycle;Signal;HPM_P1;HPM_P2
2023/01/02 00:01:39;;;;;;;49.88;6.35;;;;;;;9.79;100.00;100805.00;5110192;28;20479;-67
2023/01/02 00:04:05;;;;;;;53.42;6.43;;;;;;;9.66;100.00;100819.16;5111798;28;20032;-67
2023/01/02 00:06:35;;;;;;;55.13;6.63;;;;;;;9.71;100.00;100807.84;5086185;28;20032;-67
2023/01/02 00:09:03;;;;;;;60.92;6.53;;;;;;;9.67;100.00;100807.41;5086760;28;20024;-67
2023/01/02 00:11:28;;;;;;;48.13;5.30;;;;;;;9.66;100.00;100800.34;5112816;28;20024;-67
2023/01/02 00:13:53;;;;;;;45.50;6.28;;;;;;;9.63;100.00;100803.41;5111102;28;20115;-67
2023/01/02 00:16:19;;;;;;;55.42;6.38;;;;;;;9.55;100.00;100788.25;5103898;28;20482;-67
2023/01/02 00:18:44;;;;;;;49.22;6.50;;;;;;;9.68;100.00;100806.38;5116869;28;20044;-67
2023/01/02 00:21:10;;;;;;;53.15;5.97;;;;;;;9.57;100.00;100793.44;5104638;28;20038;-67
2023/01/02 00:23:35;;;;;;;49.85;6.07;;;;;;;9.65;100.00;100815.63;5110191;28;20039;-67
2023/01/02 00:26:01;;;;;;;53.58;6.35;;;;;;;9.65;100.00;100809.44;5110464;28;20040;-67
2023/01/02 00:28:26;;;;;;;58.50;5.95;;;;;;;9.72;100.00;100815.69;5104408;28;20051;-67
2023/01/02 00:30:52;;;;;;;51.70;6.07;;;;;;;9.52;100.00;100810.13;5116436;28;20039;-67
2023/01/02 00:33:17;;;;;;;51.13;6.38;;;;;;;9.60;100.00;100810.03;5104156;28;20446;-67
2023/01/02 00:35:43;;;;;;;55.65;5.95;;;;;;;9.66;100.00;100813.78;5109155;28;20096;-67
2023/01/02 00:38:08;;;;;;;53.15;7.40;;;;;;;9.66;100.00;100811.09;5112569;28;20032;-67
2023/01/02 00:40:34;;;;;;;45.25;6.72;;;;;;;9.65;100.00;100815.63;5103480;28;20023;-67
2023/01/02 00:42:59;;;;;;;48.20;5.80;;;;;;;9.71;100.00;100818.59;5115672;28;20058;-67
2023/01/02 00:45:25;;;;;;;46.42;6.03;;;;;;;9.67;100.00;100804.72;5106298;28;20030;-67
2023/01/02 00:47:51;;;;;;;62.33;6.60;;;;;;;9.51;100.00;100784.31;5109049;28;20074;-67
2023/01/02 00:50:17;;;;;;;54.58;6.55;;;;;;;9.68;100.00;100806.38;5094521;28;20031;-67
2023/01/02 00:52:42;;;;;;;49.03;6.10;;;;;;;9.64;100.00;100803.22;5100802;28;20036;-67
2023/01/02 00:55:08;;;;;;;49.35;6.22;;;;;;;9.74;100.00;100812.84;5113080;28;20036;-68
2023/01/02 00:57:34;;;;;;;59.00;7.03;;;;;;;9.75;100.00;100801.03;5104407;28;20055;-67
2023/01/02 00:59:59;;;;;;;68.70;7.53;;;;;;;9.76;100.00;100800.84;5105741;27;20040;-67
2023/01/02 01:02:25;;;;;;;55.67;7.07;;;;;;;9.76;100.00;100811.59;5112511;28;20032;-67
2023/01/02 01:04:50;;;;;;;55.25;6.03;;;;;;;9.67;100.00;100799.34;5100257;28;20043;-68
2023/01/02 01:07:15;;;;;;;58.35;7.32;;;;;;;9.74;100.00;100799.41;5113970;28;20160;-67
2023/01/02 01:09:41;;;;;;;54.88;6.03;;;;;;;9.77;100.00;100799.84;5108521;28;20440;-67
2023/01/02 01:12:07;;;;;;;51.67;5.85;;;;;;;9.79;100.00;100784.31;5105449;28;20039;-67
2023/01/02 01:14:32;;;;;;;39.70;5.75;;;;;;;9.83;100.00;100782.09;5113802;28;20019;-68
2023/01/02 01:16:59;;;;;;;56.15;5.82;;;;;;;9.83;100.00;100792.84;5100435;28;20047;-67
2023/01/02 01:19:28;;;;;;;49.78;6.43;;;;;;;9.84;100.00;100784.59;5112377;28;20045;-67
2023/01/02 01:21:53;;;;;;;48.20;6.68;;;;;;;9.83;100.00;100785.63;5108512;28;20149;-67
2023/01/02 01:24:19;;;;;;;60.67;7.05;;;;;;;9.47;100.00;100733.84;5086501;28;20115;-67
2023/01/02 01:26:44;;;;;;;62.10;7.20;;;;;;;9.78;100.00;100771.94;5114641;28;20065;-67
2023/01/02 01:29:09;;;;;;;56.53;7.03;;;;;;;9.83;100.00;100766.81;5103634;28;20062;-67
2023/01/02 01:31:35;;;;;;;55.10;6.68;;;;;;;9.77;100.00;100756.00;5111344;28;20028;-67
2023/01/02 01:34:00;;;;;;;56.47;7.13;;;;;;;9.78;100.00;100768.41;5111081;28;20486;-67
2023/01/02 01:36:26;;;;;;;67.13;7.78;;;;;;;9.68;100.00;100774.13;5103209;28;20042;-67
2023/01/02 01:38:51;;;;;;;60.63;7.60;;;;;;;9.68;100.00;100768.75;5114978;28;20036;-67
2023/01/02 01:41:20;;;;;;;65.20;7.00;;;;;;;9.64;100.00;100759.41;5102205;28;20666;-66
2023/01/02 01:43:50;;;;;;;68.72;8.30;;;;;;;9.47;100.00;100740.06;5107697;28;20422;-67
2023/01/02 01:46:15;;;;;;;70.78;7.78;;;;;;;9.63;100.00;100773.84;5112077;28;20032;-67
2023/01/02 01:48:40;;;;;;;73.55;8.23;;;;;;;9.61;100.00;100771.38;5101393;28;20032;-66
2023/01/02 01:51:06;;;;;;;63.65;7.40;;;;;;;9.66;100.00;100778.84;5112757;28;20024;-66
2023/01/02 01:53:32;;;;;;;70.20;7.60;;;;;;;9.70;100.00;100788.22;5104168;28;20091;-67
2023/01/02 01:56:03;;;;;;;68.60;8.00;;;;;;;9.60;100.00;100769.72;5106371;28;20062;-67
2023/01/02 01:58:33;;;;;;;64.13;7.90;;;;;;;9.64;100.00;100778.22;5113860;28;20027;-66
2023/01/02 02:00:59;;;;;;;62.47;7.15;;;;;;;9.55;100.00;100768.63;5101309;28;20478;-66
2023/01/02 02:03:29;;;;;;;66.78;8.07;;;;;;;9.62;100.00;100782.94;5110860;28;20100;-68
2023/01/02 02:05:57;;;;;;;57.28;6.75;;;;;;;9.65;100.00;100777.19;5108403;28;20039;-67
2023/01/02 02:08:47;;;;;;;69.75;7.45;;;;;;;9.68;100.00;100786.72;5103841;28;20038;-67
2023/01/02 02:11:13;;;;;;;62.78;7.75;;;;;;;9.67;100.00;100787.72;5085731;28;20023;-67
2023/01/02 02:13:39;;;;;;;76.43;8.13;;;;;;;9.72;100.00;100791.50;5109094;28;20036;-67
2023/01/02 02:16:05;;;;;;;70.05;8.52;;;;;;;9.78;100.00;100784.53;5109588;28;20036;-67
2023/01/02 02:18:48;;;;;;;59.22;7.75;;;;;;;9.78;100.00;100781.84;5101792;28;20046;-67
2023/01/02 02:21:21;;;;;;;67.65;8.15;;;;;;;9.76;100.00;100773.97;5085446;28;20440;-67
2023/01/02 02:24:24;;;;;;;64.43;8.38;;;;;;;9.84;100.00;100784.59;5108404;28;20027;-67
2023/01/02 02:26:57;;;;;;;67.13;7.28;;;;;;;9.69;100.00;100777.63;5112757;28;20019;-68
2023/01/02 02:30:08;;;;;;;62.25;6.95;;;;;;;9.77;100.00;100775.66;5103532;28;20031;-67
2023/01/02 02:32:45;;;;;;;79.25;8.90;;;;;;;9.83;100.00;100766.81;5113401;27;20109;-68
2023/01/02 02:35:13;;;;;;;62.85;6.95;;;;;;;9.87;100.00;100764.56;5086839;28;20035;-67
2023/01/02 02:38:00;;;;;;;72.28;7.90;;;;;;;9.83;100.00;100766.81;5109851;28;20032;-67
2023/01/02 02:40:32;;;;;;;77.95;8.50;;;;;;;9.85;100.00;100775.50;5113275;28;20028;-67
2023/01/02 02:43:06;;;;;;;76.50;7.95;;;;;;;9.83;100.00;100766.81;5101859;28;20032;-67
2023/01/02 02:45:46;;;;;;;77.68;8.80;;;;;;;9.79;100.00;100772.75;5111421;28;20140;-68
2023/01/02 02:48:35;;;;;;;68.72;7.93;;;;;;;9.82;100.00;100770.50;5111022;28;20059;-67
2023/01/02 02:51:08;;;;;;;75.97;9.23;;;;;;;9.71;100.00;100751.41;5101390;28;20023;-67
2023/01/02 02:53:50;;;;;;;69.07;9.25;;;;;;;9.73;100.00;100763.59;5109355;28;20028;-68
2023/01/02 02:56:19;;;;;;;71.93;8.50;;;;;;;9.59;100.00;100751.09;5111668;28;20427;-67
2023/01/02 02:58:45;;;;;;;75.45;8.88;;;;;;;9.65;100.00;100753.00;5098392;28;20032;-67
2023/01/02 03:01:14;;;;;;;79.57;8.50;;;;;;;9.63;100.00;100755.06;5110020;28;20031;-67
2023/01/02 03:03:40;;;;;;;77.13;9.48;;;;;;;9.72;100.00;100771.88;5102784;28;20107;-67
2023/01/02 03:06:36;;;;;;;90.60;9.10;;;;;;;9.70;100.00;100769.41;5084631;28;20035;-67
2023/01/02 03:09:15;;;;;;;81.95;11.02;;;;;;;9.71;100.00;100764.84;5091020;28;20031;-67
2023/01/02 03:12:07;;;;;;;87.05;8.73;;;;;;;9.68;100.00;100763.38;5105255;28;20042;-67
2023/01/02 03:14:44;;;;;;;72.75;8.07;;;;;;;9.70;100.00;100765.84;5125287;28;20452;-67
2023/01/02 03:17:27;;;;;;;89.95;9.60;;;;;;;9.70;100.00;100768.53;5082220;28;20046;-67
2023/01/02 03:19:59;;;;;;;76.07;9.60;;;;;;;9.58;100.00;100757.50;5104059;28;20104;-67
2023/01/02 03:22:30;;;;;;;90.00;9.18;;;;;;;9.68;100.00;100774.13;5107757;28;20028;-67
2023/01/02 03:24:57;;;;;;;96.05;9.65;;;;;;;9.60;100.00;100756.28;5097337;28;20032;-67
2023/01/02 03:27:27;;;;;;;86.30;10.20;;;;;;;9.50;100.00;100728.06;5106733;28;20089;-67
2023/01/02 03:30:00;;;;;;;76.40;8.73;;;;;;;9.66;100.00;100760.03;5104700;28;20023;-67
2023/01/02 03:32:37;;;;;;;79.65;9.65;;;;;;;9.61;100.00;100743.69;5098321;28;20024;-66
2023/01/02 03:35:09;;;;;;;89.88;10.27;;;;;;;9.69;100.00;100767.72;5110706;28;20032;-67
2023/01/02 03:37:38;;;;;;;80.18;8.88;;;;;;;9.76;100.00;100771.28;5100802;28;20020;-66
2023/01/02 03:40:10;;;;;;;91.72;8.75;;;;;;;9.75;100.00;100763.44;5102391;28;20036;-67
2023/01/02 03:42:46;;;;;;;86.80;9.32;;;;;;;9.76;100.00;100771.28;5110017;28;20102;-67
2023/01/02 03:45:24;;;;;;;83.68;10.10;;;;;;;9.75;100.00;100760.75;5082732;28;20037;-67
2023/01/02 03:47:52;;;;;;;78.22;9.00;;;;;;;9.80;100.00;100760.97;5103057;28;20051;-67
2023/01/02 03:50:23;;;;;;;97.43;9.82;;;;;;;9.79;100.00;100765.50;5108166;28;20110;-68
2023/01/02 03:52:49;;;;;;;89.47;11.00;;;;;;;9.82;100.00;100765.13;5095796;28;20158;-68
2023/01/02 03:55:16;;;;;;;97.10;9.07;;;;;;;9.86;100.00;100755.66;5109811;28;20069;-67
2023/01/02 03:57:59;;;;;;;88.95;10.05;;;;;;;9.84;100.00;100749.66;5101693;28;20039;-70
2023/01/02 04:00:34;;;;;;;86.68;9.48;;;;;;;9.92;100.00;100753.22;5099687;28;20103;-68
2023/01/02 04:03:06;;;;;;;86.20;8.75;;;;;;;9.89;100.00;100749.06;5109821;28;20091;-67
2023/01/02 04:05:43;;;;;;;81.05;9.80;;;;;;;9.88;100.00;100744.72;5103636;28;20038;-68
2023/01/02 04:08:36;;;;;;;89.70;8.40;;;;;;;9.67;100.00;100720.56;5105234;28;20028;-67
2023/01/02 04:11:05;;;;;;;73.15;9.15;;;;;;;9.93;100.00;100749.50;5113966;28;20077;-67
2023/01/02 04:13:53;;;;;;;83.18;8.90;;;;;;;9.87;100.00;100730.44;5103786;28;20023;-67
2023/01/02 04:16:23;;;;;;;71.80;8.20;;;;;;;9.84;100.00;100735.38;5080187;28;20399;-67
2023/01/02 04:19:08;;;;;;;77.28;8.50;;;;;;;9.93;100.00;100744.94;5091935;28;20118;-67
2023/01/02 04:21:37;;;;;;;81.10;8.00;;;;;;;9.95;100.00;100744.75;5085124;28;20047;-67
2023/01/02 04:24:14;;;;;;;83.45;8.13;;;;;;;9.92;100.00;100745.97;5085883;28;20033;-67
2023/01/02 04:26:53;;;;;;;76.70;8.38;;;;;;;9.87;100.00;100743.06;5091072;28;20040;-67
2023/01/02 04:29:18;;;;;;;78.53;8.65;;;;;;;9.75;100.00;100725.81;5050336;28;20032;-67
2023/01/02 04:31:50;;;;;;;79.30;8.77;;;;;;;9.90;100.00;100729.25;5071581;28;20050;-67
2023/01/02 04:34:17;;;;;;;91.38;9.35;;;;;;;9.91;100.00;100747.00;5089683;28;20028;-67
2023/01/02 04:36:43;;;;;;;70.75;8.85;;;;;;;9.80;100.00;100726.03;5080210;28;20049;-67
2023/01/02 04:39:09;;;;;;;75.60;8.55;;;;;;;9.74;100.00;100724.97;5093031;28;20103;-67
2023/01/02 04:41:36;;;;;;;83.13;9.27;;;;;;;9.90;100.00;100731.91;5067267;28;20179;-67
2023/01/02 04:44:02;;;;;;;74.80;9.02;;;;;;;9.89;100.00;100732.94;5068981;28;20252;-67
2023/01/02 04:46:28;;;;;;;92.75;9.98;;;;;;;9.85;100.00;100724.44;5079212;28;20170;-67
2023/01/02 04:48:54;;;;;;;82.80;9.05;;;;;;;9.94;100.00;100737.72;5102233;28;20474;-67
2023/01/02 04:51:21;;;;;;;74.72;9.02;;;;;;;9.78;100.00;100712.81;5113681;28;20039;-67
2023/01/02 04:53:48;;;;;;;86.40;9.65;;;;;;;9.92;100.00;100743.28;5107926;28;20032;-68
2023/01/02 04:56:14;;;;;;;69.97;9.18;;;;;;;9.88;100.00;100744.72;5107897;28;20024;-67
2023/01/02 04:58:41;;;;;;;94.88;10.15;;;;;;;9.91;100.00;100730.88;5115430;28;20033;-67
2023/01/02 05:01:11;;;;;;;91.80;9.88;;;;;;;9.86;100.00;100733.31;5103550;28;20039;-67
2023/01/02 05:03:39;;;;;;;84.40;9.32;;;;;;;9.91;100.00;100743.50;5111034;28;20395;-67
2023/01/02 05:06:05;;;;;;;94.13;9.38;;;;;;;10.00;100.00;100735.09;5112210;28;20072;-68
2023/01/02 05:08:30;;;;;;;71.80;9.77;;;;;;;9.81;100.00;100685.53;5105267;28;20036;-67
2023/01/02 05:10:55;;;;;;;69.60;9.20;;;;;;;9.84;100.00;100700.44;5098255;28;20144;-67
2023/01/02 05:13:21;;;;;;;81.05;9.23;;;;;;;9.99;100.00;100709.22;5105401;28;20042;-67
2023/01/02 05:15:53;;;;;;;89.65;10.35;;;;;;;9.97;100.00;100715.84;5111398;28;20039;-67
2023/01/02 05:18:18;;;;;;;72.85;9.00;;;;;;;9.92;100.00;100715.59;5113162;28;20044;-67
2023/01/02 05:20:44;;;;;;;81.05;9.85;;;;;;;9.95;100.00;100716.03;5101729;28;20031;-66
2023/01/02 05:25:54;;;;;;;60.80;8.05;;;;;;;9.83;100.00;100723.81;5109497;28;20246;-67
2023/01/02 05:28:20;;;;;;;59.05;8.40;;;;;;;9.68;100.00;100677.41;5105341;28;20040;-66
2023/01/02 05:30:45;;;;;;;76.78;9.45;;;;;;;9.86;100.00;100707.28;5114319;28;20380;-67
2023/01/02 05:33:11;;;;;;;79.03;9.38;;;;;;;9.90;100.00;100715.78;5102877;28;20116;-67
2023/01/02 05:35:36;;;;;;;73.60;9.35;;;;;;;9.87;100.00;100698.19;5112785;28;20039;-67
2023/01/02 05:38:01;;;;;;;66.07;8.85;;;;;;;9.85;100.00;100705.63;5110153;28;20083;-67
2023/01/02 05:40:27;;;;;;;59.10;7.43;;;;;;;9.89;100.00;100698.00;5104589;28;20040;-68
2023/01/02 05:42:52;;;;;;;59.33;7.57;;;;;;;9.75;100.00;100680.97;5113782;28;20054;-67
2023/01/02 05:45:18;;;;;;;55.97;7.47;;;;;;;9.86;100.00;100696.50;5085135;28;20439;-67
2023/01/02 05:47:43;;;;;;;57.53;7.57;;;;;;;9.86;100.00;100679.56;5110180;28;20032;-67
2023/01/02 05:50:11;;;;;;;53.15;7.43;;;;;;;9.89;100.00;100684.56;5109181;28;20482;-68
2023/01/02 05:52:36;;;;;;;55.15;8.27;;;;;;;9.91;100.00;100693.25;5101408;28;20126;-68
2023/01/02 05:55:02;;;;;;;59.10;6.82;;;;;;;9.92;100.00;100694.09;5115247;28;20066;-68
2023/01/02 05:57:27;;;;;;;63.03;7.80;;;;;;;9.74;100.00;100660.50;5103056;28;20028;-68
2023/01/02 05:59:53;;;;;;;68.80;7.82;;;;;;;9.89;100.00;100689.94;5107645;28;20044;-68
2023/01/02 06:02:18;;;;;;;66.18;7.75;;;;;;;9.95;100.00;100691.00;5093183;28;20031;-67
2023/01/02 06:04:43;;;;;;;62.05;8.43;;;;;;;9.86;100.00;100685.78;5099786;28;20438;-67
2023/01/02 06:07:09;;;;;;;62.30;7.70;;;;;;;9.88;100.00;100689.09;5113104;28;20035;-68
2023/01/02 06:09:34;;;;;;;82.68;8.65;;;;;;;9.87;100.00;100684.75;5103271;28;20055;-68
2023/01/02 06:12:00;;;;;;;67.75;8.35;;;;;;;9.91;100.00;100687.06;5106393;28;20509;-67
2023/01/02 06:14:26;;;;;;;84.15;8.77;;;;;;;9.79;100.00;100668.78;5110427;28;20119;-68
2023/01/02 06:16:51;;;;;;;70.00;8.40;;;;;;;9.86;100.00;100676.88;5100600;28;20439;-67
2023/01/02 06:19:17;;;;;;;67.75;8.27;;;;;;;9.83;100.00;100685.34;5113287;28;20043;-68
2023/01/02 06:21:42;;;;;;;81.10;9.23;;;;;;;9.68;100.00;100660.44;5088247;28;20038;-67
2023/01/02 06:24:08;;;;;;;72.90;8.60;;;;;;;9.76;100.00;100679.91;5104936;28;20028;-68
2023/01/02 06:26:33;;;;;;;87.70;9.75;;;;;;;9.76;100.00;100682.59;5112944;28;20065;-67
2023/01/02 06:28:58;;;;;;;83.43;10.27;;;;;;;9.69;100.00;100689.78;5100987;28;20141;-68
2023/01/02 06:31:26;;;;;;;74.82;10.15;;;;;;;9.71;100.00;100677.00;5112812;28;20032;-67
2023/01/02 06:33:53;;;;;;;75.43;11.05;;;;;;;9.71;100.00;100670.81;5107078;28;20114;-67
2023/01/02 06:36:19;;;;;;;73.15;9.82;;;;;;;9.67;100.00;100665.00;5102906;28;20119;-67
2023/01/02 06:38:45;;;;;;;73.63;9.35;;;;;;;9.71;100.00;100681.56;5095629;28;20434;-68
2023/01/02 06:41:11;;;;;;;77.80;9.93;;;;;;;9.68;100.00;100674.72;5099640;28;20427;-68
2023/01/02 06:43:43;;;;;;;73.63;9.98;;;;;;;9.68;100.00;100680.09;5111276;28;20039;-68
2023/01/02 06:46:09;;;;;;;83.25;10.02;;;;;;;9.49;100.00;100670.84;5109567;28;20031;-68
2023/01/02 06:48:35;;;;;;;69.32;9.60;;;;;;;9.58;100.00;100683.13;5084552;28;20055;-67
2023/01/02 06:51:05;;;;;;;77.13;9.77;;;;;;;9.36;100.00;100650.09;5113136;28;20069;-67
2023/01/02 06:53:36;;;;;;;69.38;9.65;;;;;;;9.43;100.00;100685.06;5111392;28;20035;-67
2023/01/02 06:56:03;;;;;;;70.47;9.60;;;;;;;9.36;100.00;100685.00;5106672;28;20019;-68
2023/01/02 06:58:30;;;;;;;73.97;9.15;;;;;;;9.36;100.00;100686.84;5102618;28;20020;-67
2023/01/02 07:01:02;;;;;;;58.38;8.73;;;;;;;9.32;100.00;100667.63;5113045;28;20031;-68
2023/01/02 07:03:27;;;;;;;53.22;9.07;;;;;;;9.31;100.00;100675.88;5103058;28;20028;-67
2023/01/02 07:05:53;;;;;;;60.70;8.85;;;;;;;9.30;100.00;100682.25;5106845;28;20452;-67
2023/01/02 07:08:18;;;;;;;67.85;9.50;;;;;;;9.13;100.00;100661.06;5109275;28;20447;-67
2023/01/02 07:10:43;;;;;;;56.78;9.23;;;;;;;9.26;100.00;100684.50;5099455;28;20028;-67
2023/01/02 07:13:09;;;;;;;55.55;9.88;;;;;;;9.29;100.00;100683.28;5113825;28;20024;-67
2023/01/02 07:15:35;;;;;;;60.70;9.05;;;;;;;9.33;100.00;100696.13;5102612;28;20100;-67
2023/01/02 07:18:00;;;;;;;55.45;9.40;;;;;;;9.28;100.00;100682.47;5105245;28;20070;-67
2023/01/02 07:20:26;;;;;;;47.63;7.90;;;;;;;9.32;100.00;100686.41;5109643;28;20040;-67
2023/01/02 07:22:52;;;;;;;48.65;7.65;;;;;;;9.30;100.00;100690.31;5065689;28;20070;-67
2023/01/02 07:25:20;;;;;;;56.90;8.35;;;;;;;9.29;100.00;100685.97;5111048;28;20036;-67
2023/01/02 07:27:45;;;;;;;56.10;7.93;;;;;;;9.25;100.00;100682.03;5105473;28;20060;-68
2023/01/02 07:30:11;;;;;;;46.47;7.85;;;;;;;9.05;100.00;100642.41;5086314;28;20464;-67
2023/01/02 07:32:39;;;;;;;48.38;7.15;;;;;;;9.14;100.00;100662.72;5110916;28;20031;-67
2023/01/02 07:35:06;;;;;;;40.53;6.85;;;;;;;9.31;100.00;100692.81;5098494;28;20077;-67
2023/01/02 07:37:31;;;;;;;41.45;6.40;;;;;;;9.22;100.00;100671.66;5109215;28;20038;-67
2023/01/02 07:39:56;;;;;;;44.17;7.75;;;;;;;9.27;100.00;100672.75;5088659;28;20067;-67
2023/01/02 07:42:22;;;;;;;37.53;6.30;;;;;;;9.28;100.00;100661.00;5089663;28;20478;-68
2023/01/02 07:44:47;;;;;;;49.40;6.65;;;;;;;9.26;100.00;100663.03;5099167;28;20040;-67
2023/01/02 07:47:13;;;;;;;47.80;7.47;;;;;;;9.20;100.00;100666.47;5112585;28;20028;-67
2023/01/02 07:49:38;;;;;;;43.33;7.18;;;;;;;9.20;100.00;100663.78;5102596;28;20027;-68
2023/01/02 07:52:08;;;;;;;49.53;7.82;;;;;;;9.26;100.00;100679.13;5105719;28;20506;-68
2023/01/02 07:54:33;;;;;;;45.92;8.13;;;;;;;9.27;100.00;100672.75;5112941;28;20058;-67
2023/01/02 07:56:59;;;;;;;51.60;8.55;;;;;;;9.22;100.00;100661.75;5102628;28;20101;-67
2023/01/02 07:59:24;;;;;;;55.03;8.90;;;;;;;9.23;100.00;100660.72;5114441;28;20531;-68
2023/01/02 08:01:49;;;;;;;54.92;9.43;;;;;;;9.36;100.00;100686.84;5091507;28;20042;-67
2023/01/02 08:04:15;;;;;;;54.88;10.30;;;;;;;9.35;100.00;100687.91;5108120;28;20039;-67
2023/01/02 08:06:41;;;;;;;49.78;10.35;;;;;;;9.25;100.00;100687.41;5114813;28;20063;-67
2023/01/02 08:09:06;;;;;;;56.50;10.48;;;;;;;9.34;100.00;100695.13;5102057;28;20039;-67
2023/01/02 08:11:32;;;;;;;53.50;10.13;;;;;;;9.25;100.00;100677.47;5112684;28;20127;-67
2023/01/02 08:13:57;;;;;;;56.08;10.90;;;;;;;9.27;100.00;100694.25;5109238;28;20096;-67
2023/01/02 08:16:23;;;;;;;50.42;11.52;;;;;;;9.31;100.00;100702.75;5105639;28;20055;-68
2023/01/02 08:18:54;;;;;;;51.28;11.52;;;;;;;9.33;100.00;100696.13;5098842;28;20050;-67
2023/01/02 08:21:20;;;;;;;57.85;12.43;;;;;;;9.28;100.00;100674.41;5105310;28;20181;-67
2023/01/02 08:23:46;;;;;;;52.08;12.70;;;;;;;9.17;100.00;100650.75;5111217;28;20395;-67
2023/01/02 08:26:13;;;;;;;49.17;12.20;;;;;;;9.13;100.00;100636.06;5112173;28;20053;-67
2023/01/02 08:28:40;;;;;;;44.70;10.32;;;;;;;9.30;100.00;100666.16;5103449;28;20040;-67
2023/01/02 08:31:14;;;;;;;49.03;11.55;;;;;;;9.32;100.00;100656.88;5116030;28;20095;-68
2023/01/02 08:33:40;;;;;;;46.17;10.55;;;;;;;9.31;100.00;100654.41;5107602;28;20412;-67
2023/01/02 08:36:06;;;;;;;39.55;9.70;;;;;;;9.30;100.00;100655.41;5108853;28;20030;-67
2023/01/02 08:38:32;;;;;;;44.72;10.50;;;;;;;9.31;100.00;100665.97;5114221;28;20055;-68
2023/01/02 08:40:58;;;;;;;42.83;11.35;;;;;;;9.34;100.00;100684.38;5088243;28;20046;-68
2023/01/02 08:43:24;;;;;;;41.20;10.43;;;;;;;9.18;100.00;100668.53;5104699;28;20038;-67
2023/01/02 08:45:49;;;;;;;37.83;10.57;;;;;;;9.29;100.00;100685.97;5103672;28;20399;-67
2023/01/02 08:48:15;;;;;;;35.80;10.60;;;;;;;9.32;100.00;100694.47;5088055;28;20032;-67
2023/01/02 08:50:40;;;;;;;37.15;10.30;;;;;;;8.84;100.00;100620.94;5108046;28;20329;-67
2023/01/02 08:53:06;;;;;;;42.22;10.80;;;;;;;9.36;100.00;100700.28;5104284;28;20034;-67
2023/01/02 08:55:31;;;;;;;34.50;10.23;;;;;;;9.33;100.00;100690.75;5103266;28;20040;-67
2023/01/02 08:57:56;;;;;;;44.72;11.18;;;;;;;9.43;100.00;100690.41;5085220;28;20059;-67
2023/01/02 09:00:22;;;;;;;38.55;10.82;;;;;;;9.50;100.00;100693.16;5105669;28;20059;-67
2023/01/02 09:02:47;;;;;;;42.30;11.70;;;;;;;9.51;100.00;100705.59;5106734;28;20031;-68
2023/01/02 09:05:13;;;;;;;33.17;10.90;;;;;;;9.47;100.00;100701.59;5101680;28;20034;-68
2023/01/02 09:07:38;;;;;;;42.30;10.95;;;;;;;9.54;100.00;100724.00;5110592;28;20468;-69
2023/01/02 09:10:04;;;;;;;36.53;11.35;;;;;;;9.61;100.00;100724.88;5109512;28;20084;-68
2023/01/02 09:12:29;;;;;;;30.60;9.50;;;;;;;9.61;100.00;100725.72;5103794;28;20070;-68
2023/01/02 09:14:55;;;;;;;34.35;9.15;;;;;;;9.62;100.00;100718.47;5110407;28;20085;-69
2023/01/02 09:17:20;;;;;;;29.27;9.48;;;;;;;9.69;100.00;100715.84;5112811;28;20508;-68
2023/01/02 09:19:47;;;;;;;44.15;10.93;;;;;;;9.69;100.00;100722.03;5106114;28;20066;-69
2023/01/02 09:22:12;;;;;;;39.70;10.00;;;;;;;9.77;100.00;100724.59;5107023;28;20043;-68
2023/01/02 09:24:38;;;;;;;34.75;9.85;;;;;;;9.73;100.00;100709.88;5115571;28;20020;-67
2023/01/02 09:27:06;;;;;;;34.05;9.50;;;;;;;9.72;100.00;100691.28;5119592;27;20078;-67
2023/01/02 09:29:31;;;;;;;30.10;8.43;;;;;;;9.71;100.00;100677.00;5112785;28;20050;-68
2023/01/02 09:31:57;;;;;;;32.22;7.60;;;;;;;9.78;100.00;100683.25;5108980;28;20114;-67
2023/01/02 09:34:22;;;;;;;20.40;6.63;;;;;;;9.76;100.00;100689.84;5105967;28;20035;-67
2023/01/02 09:36:48;;;;;;;22.70;6.90;;;;;;;9.74;100.00;100690.06;5101625;28;20032;-67
2023/01/02 09:39:13;;;;;;;30.42;6.93;;;;;;;9.75;100.00;100704.31;5113911;28;20047;-68
2023/01/02 09:41:42;;;;;;;23.25;6.57;;;;;;;9.57;100.00;100672.53;5104218;28;20125;-67
2023/01/02 09:44:20;;;;;;;21.50;6.40;;;;;;;9.78;100.00;100694.00;5108694;28;20035;-67
2023/01/02 09:46:59;;;;;;;27.33;6.60;;;;;;;9.73;100.00;100669.56;5106419;28;20469;-67
2023/01/02 09:49:35;;;;;;;21.90;6.65;;;;;;;9.82;100.00;100700.63;5096736;28;20051;-67
2023/01/02 09:52:01;;;;;;;24.63;6.13;;;;;;;9.34;100.00;100611.06;5105090;28;20028;-67
2023/01/02 09:54:29;;;;;;;27.15;7.45;;;;;;;9.72;100.00;100681.34;5083085;28;20053;-67
2023/01/02 09:57:21;;;;;;;20.25;8.82;;;;;;;9.85;100.00;100705.63;5112665;28;20448;-67
2023/01/02 10:00:02;;;;;;;27.05;12.05;;;;;;;9.87;100.00;100698.19;5104745;28;20066;-68
2023/01/02 10:02:52;;;;;;;26.20;11.45;;;;;;;9.92;100.00;100694.91;5103552;28;20035;-67
2023/01/02 10:05:28;;;;;;;18.52;8.18;;;;;;;9.89;100.00;100698.81;5085521;28;20031;-65
2023/01/02 10:08:12;;;;;;;20.63;7.00;;;;;;;9.95;100.00;100682.94;5108575;28;20063;-65
2023/01/02 10:10:41;;;;;;;27.15;9.02;;;;;;;9.95;100.00;100682.94;5105414;28;20036;-65
2023/01/02 10:13:09;;;;;;;32.63;12.18;;;;;;;9.99;100.00;100678.81;5115300;28;20027;-65
2023/01/02 10:15:35;;;;;;;34.42;12.55;;;;;;;10.02;100.00;100667.66;5108363;28;20032;-65
2023/01/02 10:18:15;;;;;;;47.03;19.77;;;;;;;10.04;100.00;100669.13;5106148;28;20142;-65
2023/01/02 10:20:45;;;;;;;42.08;13.45;;;;;;;10.04;100.00;100662.94;5101980;28;20372;-65
2023/01/02 10:23:20;;;;;;;26.60;8.30;;;;;;;9.99;100.00;100652.75;5105383;28;20028;-65
2023/01/02 10:25:53;;;;;;;17.00;6.10;;;;;;;10.01;100.00;100660.66;5108287;28;20449;-67
2023/01/02 10:28:40;;;;;;;18.23;6.35;;;;;;;10.00;100.00;100649.06;5100718;28;20059;-65
2023/01/02 10:31:30;;;;;;;19.50;6.50;;;;;;;9.98;100.00;100653.81;5113504;28;20041;-65
2023/01/02 10:34:00;;;;;;;16.67;5.93;;;;;;;9.99;100.00;100635.81;5106865;28;20031;-66
2023/01/02 10:36:33;;;;;;;17.67;6.40;;;;;;;9.95;100.00;100638.06;5103715;28;20521;-66
2023/01/02 10:39:05;;;;;;;17.13;6.70;;;;;;;9.98;100.00;100632.28;5111850;28;20037;-66
2023/01/02 10:41:32;;;;;;;16.27;5.80;;;;;;;9.98;100.00;100635.00;5115774;28;20035;-66
2023/01/02 10:44:20;;;;;;;18.65;6.45;;;;;;;10.01;100.00;100639.97;5116400;28;20100;-66
2023/01/02 10:46:46;;;;;;;21.52;6.88;;;;;;;9.92;100.00;100622.34;5100611;28;20043;-67
2023/01/02 10:49:12;;;;;;;23.95;7.63;;;;;;;10.01;100.00;100637.28;5096338;28;20036;-66
2023/01/02 10:51:44;;;;;;;19.85;7.53;;;;;;;10.01;100.00;100629.22;5104408;28;20040;-66
2023/01/02 10:54:10;;;;;;;22.25;7.93;;;;;;;10.02;100.00;100621.97;5106699;27;20051;-66
2023/01/02 10:56:38;;;;;;;31.27;9.05;;;;;;;10.03;100.00;100629.00;5111615;28;20039;-66
2023/01/02 10:59:22;;;;;;;23.40;8.65;;;;;;;10.05;100.00;100625.09;5101122;28;20160;-66
2023/01/02 11:01:58;;;;;;;22.17;8.45;;;;;;;10.05;100.00;100611.66;5108472;28;20059;-66
2023/01/02 11:04:29;;;;;;;27.20;9.52;;;;;;;10.08;100.00;100603.19;5111624;28;20031;-66
2023/01/02 11:07:01;;;;;;;24.95;9.40;;;;;;;10.09;100.00;100590.56;5101792;28;20039;-66
2023/01/02 11:09:32;;;;;;;19.70;8.25;;;;;;;10.17;100.00;100590.41;5113315;28;20414;-66
2023/01/02 11:12:06;;;;;;;28.25;9.65;;;;;;;10.21;100.00;100596.22;5107158;28;20058;-66
2023/01/02 11:14:34;;;;;;;20.77;9.68;;;;;;;10.20;100.00;100605.28;5109470;28;20389;-65
2023/01/02 11:17:12;;;;;;;22.13;10.32;;;;;;;10.21;100.00;100618.53;5098591;28;20040;-66
2023/01/02 11:19:59;;;;;;;24.83;10.20;;;;;;;10.21;100.00;100625.78;5104683;28;20406;-66
2023/01/02 11:22:35;;;;;;;21.75;9.55;;;;;;;10.12;100.00;100604.44;5104862;28;20477;-66
2023/01/02 11:25:04;;;;;;;21.20;9.60;;;;;;;9.94;100.00;100588.03;5114048;28;20046;-66
2023/01/02 11:27:33;;;;;;;18.52;8.93;;;;;;;10.13;100.00;100618.69;5097281;28;20051;-65